Waynesville, Illinois
Current Conditions -  °F | °C
As of 12:35 PM on Saturday 25 Oct 2014 (Local Time) from KAAA Reporting Station
Clear Clear  
Wind Chill: 74°   Ceiling: Unl
Heat Index: 74°   Visibility: 10mi
Dew Point: 56°   Wind: 5mph
Humidity: 53%   Direction: 270°W
Pressure: 29.99"   Gusts: NA
Location:  40.24°N, 89.12°W
Report Text: KAAA 251735Z AUTO 27004KT 10SM CLR 23/13 A2999 RMK AO2 T02330132
Loading
Personal Weather Stations






























Interactive Weather Map
Tropical Storm Tracking
New forecast layout! Learn more

10-Day Weather Forecast

Advertisements
Track Severe Weather on mobile